sensor_id;sensor_type;location;lat;lon;timestamp;temperature;humidity
5009;DHT22;2523;51.058;6.922;2023-06-19T00:00:37;23.00;99.90
5009;DHT22;2523;51.058;6.922;2023-06-19T00:03:05;22.90;99.90
5009;DHT22;2523;51.058;6.922;2023-06-19T00:05:30;22.90;99.90
5009;DHT22;2523;51.058;6.922;2023-06-19T00:07:56;22.80;99.90
5009;DHT22;2523;51.058;6.922;2023-06-19T00:10:22;22.80;99.90
5009;DHT22;2523;51.058;6.922;2023-06-19T00:12:47;22.80;99.90
5009;DHT22;2523;51.058;6.922;2023-06-19T00:15:13;22.80;99.90
5009;DHT22;2523;51.058;6.922;2023-06-19T00:17:39;22.70;99.90
5009;DHT22;2523;51.058;6.922;2023-06-19T00:20:05;22.80;99.90
5009;DHT22;2523;51.058;6.922;2023-06-19T00:22:31;22.80;99.90
5009;DHT22;2523;51.058;6.922;2023-06-19T00:24:57;22.70;99.90
5009;DHT22;2523;51.058;6.922;2023-06-19T00:27:22;22.70;99.90
5009;DHT22;2523;51.058;6.922;2023-06-19T00:29:51;22.70;99.90
5009;DHT22;2523;51.058;6.922;2023-06-19T00:32:16;22.70;99.90
5009;DHT22;2523;51.058;6.922;2023-06-19T00:34:42;22.70;99.90
5009;DHT22;2523;51.058;6.922;2023-06-19T00:37:08;22.60;99.90
5009;DHT22;2523;51.058;6.922;2023-06-19T00:39:35;22.60;99.90
5009;DHT22;2523;51.058;6.922;2023-06-19T00:42:00;22.60;99.90
5009;DHT22;2523;51.058;6.922;2023-06-19T00:44:26;22.50;99.90
5009;DHT22;2523;51.058;6.922;2023-06-19T00:46:56;22.40;99.90
5009;DHT22;2523;51.058;6.922;2023-06-19T00:49:22;22.40;99.90
5009;DHT22;2523;51.058;6.922;2023-06-19T00:51:48;22.50;99.90
5009;DHT22;2523;51.058;6.922;2023-06-19T00:54:14;22.40;99.90
5009;DHT22;2523;51.058;6.922;2023-06-19T00:56:40;22.40;99.90
5009;DHT22;2523;51.058;6.922;2023-06-19T00:59:15;22.40;99.90
5009;DHT22;2523;51.058;6.922;2023-06-19T01:01:41;22.40;99.90
5009;DHT22;2523;51.058;6.922;2023-06-19T01:04:07;22.40;99.90
5009;DHT22;2523;51.058;6.922;2023-06-19T01:06:40;22.40;99.90
5009;DHT22;2523;51.058;6.922;2023-06-19T01:09:08;22.30;99.90
5009;DHT22;2523;51.058;6.922;2023-06-19T01:11:50;22.40;99.90
5009;DHT22;2523;51.058;6.922;2023-06-19T01:14:39;22.40;99.90
5009;DHT22;2523;51.058;6.922;2023-06-19T01:17:06;22.40;99.90
5009;DHT22;2523;51.058;6.922;2023-06-19T01:19:31;22.40;99.90
5009;DHT22;2523;51.058;6.922;2023-06-19T01:24:23;22.40;99.90
5009;DHT22;2523;51.058;6.922;2023-06-19T01:26:48;22.40;99.90
5009;DHT22;2523;51.058;6.922;2023-06-19T01:29:15;22.40;99.90
5009;DHT22;2523;51.058;6.922;2023-06-19T01:32:04;22.30;99.90
5009;DHT22;2523;51.058;6.922;2023-06-19T01:34:31;22.30;99.90
5009;DHT22;2523;51.058;6.922;2023-06-19T01:36:58;22.30;99.90
5009;DHT22;2523;51.058;6.922;2023-06-19T01:39:25;22.30;99.90
5009;DHT22;2523;51.058;6.922;2023-06-19T01:41:52;22.20;99.90
5009;DHT22;2523;51.058;6.922;2023-06-19T01:44:19;22.10;99.90
5009;DHT22;2523;51.058;6.922;2023-06-19T01:46:48;22.10;99.90
5009;DHT22;2523;51.058;6.922;2023-06-19T01:49:14;22.10;99.90
5009;DHT22;2523;51.058;6.922;2023-06-19T01:51:40;22.10;99.90
5009;DHT22;2523;51.058;6.922;2023-06-19T01:54:05;22.10;99.90
5009;DHT22;2523;51.058;6.922;2023-06-19T01:56:32;22.10;99.90
5009;DHT22;2523;51.058;6.922;2023-06-19T01:58:57;22.10;99.90
5009;DHT22;2523;51.058;6.922;2023-06-19T02:01:23;22.20;99.90
5009;DHT22;2523;51.058;6.922;2023-06-19T02:03:48;22.20;99.90
5009;DHT22;2523;51.058;6.922;2023-06-19T02:06:14;22.20;99.90
5009;DHT22;2523;51.058;6.922;2023-06-19T02:08:39;22.20;99.90
5009;DHT22;2523;51.058;6.922;2023-06-19T02:11:05;22.20;99.90
5009;DHT22;2523;51.058;6.922;2023-06-19T02:13:31;22.20;99.90
5009;DHT22;2523;51.058;6.922;2023-06-19T02:15:56;22.20;99.90
5009;DHT22;2523;51.058;6.922;2023-06-19T02:18:22;22.20;99.90
5009;DHT22;2523;51.058;6.922;2023-06-19T02:20:47;22.10;99.90
5009;DHT22;2523;51.058;6.922;2023-06-19T02:23:13;22.20;99.90
5009;DHT22;2523;51.058;6.922;2023-06-19T02:25:39;22.20;99.90
5009;DHT22;2523;51.058;6.922;2023-06-19T02:28:04;22.20;99.90
5009;DHT22;2523;51.058;6.922;2023-06-19T02:30:30;22.20;99.90
5009;DHT22;2523;51.058;6.922;2023-06-19T02:32:55;22.20;99.90
5009;DHT22;2523;51.058;6.922;2023-06-19T02:35:21;22.20;99.90
5009;DHT22;2523;51.058;6.922;2023-06-19T02:37:47;22.20;99.90
5009;DHT22;2523;51.058;6.922;2023-06-19T02:40:13;22.20;99.90
5009;DHT22;2523;51.058;6.922;2023-06-19T02:42:39;22.30;99.90
5009;DHT22;2523;51.058;6.922;2023-06-19T02:45:05;22.30;99.90
5009;DHT22;2523;51.058;6.922;2023-06-19T02:47:31;22.30;99.90
5009;DHT22;2523;51.058;6.922;2023-06-19T02:49:59;22.30;99.90
5009;DHT22;2523;51.058;6.922;2023-06-19T02:52:25;22.30;99.90
5009;DHT22;2523;51.058;6.922;2023-06-19T02:54:51;22.30;99.90
5009;DHT22;2523;51.058;6.922;2023-06-19T02:57:16;22.40;99.90
5009;DHT22;2523;51.058;6.922;2023-06-19T02:59:42;22.40;99.90
5009;DHT22;2523;51.058;6.922;2023-06-19T03:02:07;22.30;99.90
5009;DHT22;2523;51.058;6.922;2023-06-19T03:04:33;22.30;99.90
5009;DHT22;2523;51.058;6.922;2023-06-19T03:06:58;22.30;99.90
5009;DHT22;2523;51.058;6.922;2023-06-19T03:09:24;22.30;99.90
5009;DHT22;2523;51.058;6.922;2023-06-19T03:11:49;22.20;99.90
5009;DHT22;2523;51.058;6.922;2023-06-19T03:14:15;22.10;99.90
5009;DHT22;2523;51.058;6.922;2023-06-19T03:16:40;22.00;99.90
5009;DHT22;2523;51.058;6.922;2023-06-19T03:19:06;22.00;99.90
5009;DHT22;2523;51.058;6.922;2023-06-19T03:21:31;21.90;99.90
5009;DHT22;2523;51.058;6.922;2023-06-19T03:23:57;21.90;99.90
5009;DHT22;2523;51.058;6.922;2023-06-19T03:26:23;21.80;99.90
5009;DHT22;2523;51.058;6.922;2023-06-19T03:28:50;21.80;99.90
5009;DHT22;2523;51.058;6.922;2023-06-19T03:31:15;21.70;99.90
5009;DHT22;2523;51.058;6.922;2023-06-19T03:33:41;21.70;99.90
5009;DHT22;2523;51.058;6.922;2023-06-19T03:36:06;21.80;99.90
5009;DHT22;2523;51.058;6.922;2023-06-19T03:38:32;21.80;99.90
5009;DHT22;2523;51.058;6.922;2023-06-19T03:40:58;21.80;99.90
5009;DHT22;2523;51.058;6.922;2023-06-19T03:43:23;21.80;99.90
5009;DHT22;2523;51.058;6.922;2023-06-19T03:45:49;21.80;99.90
5009;DHT22;2523;51.058;6.922;2023-06-19T03:48:16;21.80;99.90
5009;DHT22;2523;51.058;6.922;2023-06-19T03:50:42;21.80;99.90
5009;DHT22;2523;51.058;6.922;2023-06-19T03:53:07;21.80;99.90
5009;DHT22;2523;51.058;6.922;2023-06-19T03:55:33;21.70;99.90
5009;DHT22;2523;51.058;6.922;2023-06-19T03:57:58;21.70;99.90
5009;DHT22;2523;51.058;6.922;2023-06-19T04:00:24;21.60;99.90
5009;DHT22;2523;51.058;6.922;2023-06-19T04:02:49;21.50;99.90
5009;DHT22;2523;51.058;6.922;2023-06-19T04:05:15;21.50;99.90
5009;DHT22;2523;51.058;6.922;2023-06-19T04:07:41;21.40;99.90
5009;DHT22;2523;51.058;6.922;2023-06-19T04:10:07;21.40;99.90
5009;DHT22;2523;51.058;6.922;2023-06-19T04:12:33;21.50;99.90
5009;DHT22;2523;51.058;6.922;2023-06-19T04:14:58;21.30;99.90
5009;DHT22;2523;51.058;6.922;2023-06-19T04:17:24;21.40;99.90
5009;DHT22;2523;51.058;6.922;2023-06-19T04:19:50;21.40;99.90
5009;DHT22;2523;51.058;6.922;2023-06-19T04:22:15;21.30;99.90
5009;DHT22;2523;51.058;6.922;2023-06-19T04:24:41;21.30;99.90
5009;DHT22;2523;51.058;6.922;2023-06-19T04:27:06;21.30;99.90
5009;DHT22;2523;51.058;6.922;2023-06-19T04:29:34;21.40;99.90
5009;DHT22;2523;51.058;6.922;2023-06-19T04:31:59;21.40;99.90
5009;DHT22;2523;51.058;6.922;2023-06-19T04:34:25;21.40;99.90
5009;DHT22;2523;51.058;6.922;2023-06-19T04:36:51;21.30;99.90
5009;DHT22;2523;51.058;6.922;2023-06-19T04:39:17;21.40;99.90
5009;DHT22;2523;51.058;6.922;2023-06-19T04:41:43;21.40;99.90
5009;DHT22;2523;51.058;6.922;2023-06-19T04:44:10;21.40;99.90
5009;DHT22;2523;51.058;6.922;2023-06-19T04:46:37;21.30;99.90
5009;DHT22;2523;51.058;6.922;2023-06-19T04:49:03;21.40;99.90
5009;DHT22;2523;51.058;6.922;2023-06-19T04:51:30;21.40;99.90
5009;DHT22;2523;51.058;6.922;2023-06-19T04:53:55;21.50;99.90
5009;DHT22;2523;51.058;6.922;2023-06-19T04:56:21;21.40;99.90
5009;DHT22;2523;51.058;6.922;2023-06-19T04:58:46;21.30;99.90
5009;DHT22;2523;51.058;6.922;2023-06-19T05:01:16;21.40;99.90
5009;DHT22;2523;51.058;6.922;2023-06-19T05:03:43;21.40;99.90
5009;DHT22;2523;51.058;6.922;2023-06-19T05:06:09;21.40;99.90
5009;DHT22;2523;51.058;6.922;2023-06-19T05:08:34;21.40;99.90
5009;DHT22;2523;51.058;6.922;2023-06-19T05:11:00;21.20;99.90
5009;DHT22;2523;51.058;6.922;2023-06-19T05:13:26;21.10;99.90
5009;DHT22;2523;51.058;6.922;2023-06-19T05:15:51;21.10;99.90
5009;DHT22;2523;51.058;6.922;2023-06-19T05:18:17;21.10;99.90
5009;DHT22;2523;51.058;6.922;2023-06-19T05:20:43;21.20;99.90
5009;DHT22;2523;51.058;6.922;2023-06-19T05:23:09;21.10;99.90
5009;DHT22;2523;51.058;6.922;2023-06-19T05:25:34;21.20;99.90
5009;DHT22;2523;51.058;6.922;2023-06-19T05:28:00;21.20;99.90
5009;DHT22;2523;51.058;6.922;2023-06-19T05:30:26;21.30;99.90
5009;DHT22;2523;51.058;6.922;2023-06-19T05:32:51;21.30;99.90
5009;DHT22;2523;51.058;6.922;2023-06-19T05:35:17;21.30;99.90
5009;DHT22;2523;51.058;6.922;2023-06-19T05:37:43;21.40;99.90
5009;DHT22;2523;51.058;6.922;2023-06-19T05:40:09;21.50;99.90
5009;DHT22;2523;51.058;6.922;2023-06-19T05:42:36;21.60;99.90
5009;DHT22;2523;51.058;6.922;2023-06-19T05:45:02;21.60;99.90
5009;DHT22;2523;51.058;6.922;2023-06-19T05:47:28;21.60;99.90
5009;DHT22;2523;51.058;6.922;2023-06-19T05:49:54;21.60;99.90
5009;DHT22;2523;51.058;6.922;2023-06-19T05:52:20;21.60;99.90
5009;DHT22;2523;51.058;6.922;2023-06-19T05:54:47;21.60;99.90
5009;DHT22;2523;51.058;6.922;2023-06-19T05:57:12;21.60;99.90
5009;DHT22;2523;51.058;6.922;2023-06-19T05:59:38;21.70;99.90
5009;DHT22;2523;51.058;6.922;2023-06-19T06:02:04;21.80;99.90
5009;DHT22;2523;51.058;6.922;2023-06-19T06:04:31;22.00;99.90
5009;DHT22;2523;51.058;6.922;2023-06-19T06:06:57;22.10;99.90
5009;DHT22;2523;51.058;6.922;2023-06-19T06:09:22;22.20;99.90
5009;DHT22;2523;51.058;6.922;2023-06-19T06:11:48;22.30;99.90
5009;DHT22;2523;51.058;6.922;2023-06-19T06:14:14;22.30;99.90
5009;DHT22;2523;51.058;6.922;2023-06-19T06:16:39;22.40;99.90
5009;DHT22;2523;51.058;6.922;2023-06-19T06:19:05;22.40;99.90
5009;DHT22;2523;51.058;6.922;2023-06-19T06:21:31;22.40;99.90
5009;DHT22;2523;51.058;6.922;2023-06-19T06:23:57;22.50;99.90
5009;DHT22;2523;51.058;6.922;2023-06-19T06:26:23;22.60;99.90
5009;DHT22;2523;51.058;6.922;2023-06-19T06:28:48;22.60;99.90
5009;DHT22;2523;51.058;6.922;2023-06-19T06:31:14;22.60;99.90
5009;DHT22;2523;51.058;6.922;2023-06-19T06:33:39;22.70;99.90
5009;DHT22;2523;51.058;6.922;2023-06-19T06:36:05;22.90;99.90
5009;DHT22;2523;51.058;6.922;2023-06-19T06:38:30;23.00;99.90
5009;DHT22;2523;51.058;6.922;2023-06-19T06:40:56;23.10;99.90
5009;DHT22;2523;51.058;6.922;2023-06-19T06:43:22;23.30;99.90
5009;DHT22;2523;51.058;6.922;2023-06-19T06:45:47;23.30;99.90
5009;DHT22;2523;51.058;6.922;2023-06-19T06:48:13;23.40;99.90
5009;DHT22;2523;51.058;6.922;2023-06-19T06:50:38;23.30;99.90
5009;DHT22;2523;51.058;6.922;2023-06-19T06:53:04;23.20;99.90
5009;DHT22;2523;51.058;6.922;2023-06-19T06:55:29;23.20;99.90
5009;DHT22;2523;51.058;6.922;2023-06-19T06:57:55;23.20;99.90
5009;DHT22;2523;51.058;6.922;2023-06-19T07:00:20;23.10;99.90
5009;DHT22;2523;51.058;6.922;2023-06-19T07:02:46;23.10;99.90
5009;DHT22;2523;51.058;6.922;2023-06-19T07:05:13;23.10;99.90
5009;DHT22;2523;51.058;6.922;2023-06-19T07:07:39;23.10;99.90
5009;DHT22;2523;51.058;6.922;2023-06-19T07:10:05;23.00;99.90
5009;DHT22;2523;51.058;6.922;2023-06-19T07:12:31;23.00;99.90
5009;DHT22;2523;51.058;6.922;2023-06-19T07:14:56;23.00;99.90
5009;DHT22;2523;51.058;6.922;2023-06-19T07:17:22;23.10;99.90
5009;DHT22;2523;51.058;6.922;2023-06-19T07:19:48;23.20;99.90
5009;DHT22;2523;51.058;6.922;2023-06-19T07:22:14;23.30;99.90
5009;DHT22;2523;51.058;6.922;2023-06-19T07:24:42;23.50;99.90
5009;DHT22;2523;51.058;6.922;2023-06-19T07:27:08;23.70;99.90
5009;DHT22;2523;51.058;6.922;2023-06-19T07:29:34;24.00;99.90
5009;DHT22;2523;51.058;6.922;2023-06-19T07:31:59;24.10;99.90
5009;DHT22;2523;51.058;6.922;2023-06-19T07:34:27;24.10;99.90
5009;DHT22;2523;51.058;6.922;2023-06-19T07:36:53;24.00;99.90
5009;DHT22;2523;51.058;6.922;2023-06-19T07:39:19;23.80;99.90
5009;DHT22;2523;51.058;6.922;2023-06-19T07:41:44;23.70;99.90
5009;DHT22;2523;51.058;6.922;2023-06-19T07:44:11;23.60;99.90
5009;DHT22;2523;51.058;6.922;2023-06-19T07:46:37;23.60;99.90
5009;DHT22;2523;51.058;6.922;2023-06-19T07:49:02;23.50;99.90
5009;DHT22;2523;51.058;6.922;2023-06-19T07:51:28;23.50;99.90
5009;DHT22;2523;51.058;6.922;2023-06-19T07:53:53;23.40;99.90
5009;DHT22;2523;51.058;6.922;2023-06-19T07:56:19;23.50;99.90
5009;DHT22;2523;51.058;6.922;2023-06-19T07:58:46;23.50;99.90
5009;DHT22;2523;51.058;6.922;2023-06-19T08:01:12;23.50;99.90
5009;DHT22;2523;51.058;6.922;2023-06-19T08:03:38;23.50;99.90
5009;DHT22;2523;51.058;6.922;2023-06-19T08:06:03;23.50;99.90
5009;DHT22;2523;51.058;6.922;2023-06-19T08:08:29;23.50;99.90
5009;DHT22;2523;51.058;6.922;2023-06-19T08:10:54;23.50;99.90
5009;DHT22;2523;51.058;6.922;2023-06-19T08:13:20;23.50;99.90
5009;DHT22;2523;51.058;6.922;2023-06-19T08:15:45;23.50;99.90
5009;DHT22;2523;51.058;6.922;2023-06-19T08:18:11;23.50;99.90
5009;DHT22;2523;51.058;6.922;2023-06-19T08:20:36;23.60;99.90
5009;DHT22;2523;51.058;6.922;2023-06-19T08:23:03;23.60;99.90
5009;DHT22;2523;51.058;6.922;2023-06-19T08:25:28;23.70;99.90
5009;DHT22;2523;51.058;6.922;2023-06-19T08:27:54;23.80;99.90
5009;DHT22;2523;51.058;6.922;2023-06-19T08:30:19;23.90;99.90
5009;DHT22;2523;51.058;6.922;2023-06-19T08:32:46;24.00;99.90
5009;DHT22;2523;51.058;6.922;2023-06-19T08:35:12;24.20;99.90
5009;DHT22;2523;51.058;6.922;2023-06-19T08:37:38;24.30;99.90
5009;DHT22;2523;51.058;6.922;2023-06-19T08:40:04;24.50;99.90
5009;DHT22;2523;51.058;6.922;2023-06-19T08:42:34;24.60;99.90
5009;DHT22;2523;51.058;6.922;2023-06-19T08:44:59;24.50;99.90
5009;DHT22;2523;51.058;6.922;2023-06-19T08:47:34;24.60;99.90
5009;DHT22;2523;51.058;6.922;2023-06-19T08:50:00;24.70;99.90
5009;DHT22;2523;51.058;6.922;2023-06-19T08:52:26;24.90;99.90
5009;DHT22;2523;51.058;6.922;2023-06-19T08:54:51;25.10;99.90
5009;DHT22;2523;51.058;6.922;2023-06-19T08:57:17;25.30;99.90
5009;DHT22;2523;51.058;6.922;2023-06-19T08:59:50;25.40;99.90
5009;DHT22;2523;51.058;6.922;2023-06-19T09:02:16;25.50;99.90
5009;DHT22;2523;51.058;6.922;2023-06-19T09:04:42;25.40;99.90
5009;DHT22;2523;51.058;6.922;2023-06-19T09:07:08;25.40;99.90
5009;DHT22;2523;51.058;6.922;2023-06-19T09:09:34;25.40;99.90
5009;DHT22;2523;51.058;6.922;2023-06-19T09:12:01;25.40;99.90
5009;DHT22;2523;51.058;6.922;2023-06-19T09:17:00;25.30;99.90
5009;DHT22;2523;51.058;6.922;2023-06-19T09:19:26;25.20;99.90
5009;DHT22;2523;51.058;6.922;2023-06-19T09:21:51;25.10;99.90
5009;DHT22;2523;51.058;6.922;2023-06-19T09:24:17;25.00;99.90
5009;DHT22;2523;51.058;6.922;2023-06-19T09:26:42;25.00;99.90
5009;DHT22;2523;51.058;6.922;2023-06-19T09:29:14;24.90;99.90
5009;DHT22;2523;51.058;6.922;2023-06-19T09:31:44;25.00;99.90
5009;DHT22;2523;51.058;6.922;2023-06-19T09:34:10;25.20;99.90
5009;DHT22;2523;51.058;6.922;2023-06-19T09:36:36;25.40;99.90
5009;DHT22;2523;51.058;6.922;2023-06-19T09:39:04;25.40;99.90
5009;DHT22;2523;51.058;6.922;2023-06-19T09:41:31;25.30;99.90
5009;DHT22;2523;51.058;6.922;2023-06-19T09:43:58;25.10;99.90
5009;DHT22;2523;51.058;6.922;2023-06-19T09:46:32;25.00;99.90
5009;DHT22;2523;51.058;6.922;2023-06-19T09:49:01;24.90;99.90
5009;DHT22;2523;51.058;6.922;2023-06-19T09:51:37;24.90;99.90
5009;DHT22;2523;51.058;6.922;2023-06-19T09:54:05;25.20;99.90
5009;DHT22;2523;51.058;6.922;2023-06-19T09:56:32;25.60;99.90
5009;DHT22;2523;51.058;6.922;2023-06-19T09:58:59;26.00;99.90
5009;DHT22;2523;51.058;6.922;2023-06-19T10:01:27;26.20;99.90
5009;DHT22;2523;51.058;6.922;2023-06-19T10:04:07;26.30;99.90
5009;DHT22;2523;51.058;6.922;2023-06-19T10:06:46;26.50;99.90
5009;DHT22;2523;51.058;6.922;2023-06-19T10:09:13;26.60;99.90
5009;DHT22;2523;51.058;6.922;2023-06-19T10:11:52;26.70;99.90
5009;DHT22;2523;51.058;6.922;2023-06-19T10:14:19;26.90;99.90
5009;DHT22;2523;51.058;6.922;2023-06-19T10:16:45;26.90;99.90
5009;DHT22;2523;51.058;6.922;2023-06-19T10:19:15;26.90;99.90
5009;DHT22;2523;51.058;6.922;2023-06-19T10:21:47;26.90;99.90
5009;DHT22;2523;51.058;6.922;2023-06-19T10:24:17;27.00;99.90
5009;DHT22;2523;51.058;6.922;2023-06-19T10:26:56;27.20;99.90
5009;DHT22;2523;51.058;6.922;2023-06-19T10:29:22;27.30;99.90
5009;DHT22;2523;51.058;6.922;2023-06-19T10:31:48;27.20;99.90
5009;DHT22;2523;51.058;6.922;2023-06-19T10:34:14;27.30;99.90
5009;DHT22;2523;51.058;6.922;2023-06-19T10:36:39;27.40;99.90
5009;DHT22;2523;51.058;6.922;2023-06-19T10:39:05;27.40;99.90
5009;DHT22;2523;51.058;6.922;2023-06-19T10:41:32;27.40;99.90
5009;DHT22;2523;51.058;6.922;2023-06-19T10:44:06;27.50;99.90
5009;DHT22;2523;51.058;6.922;2023-06-19T10:46:38;27.70;99.90
5009;DHT22;2523;51.058;6.922;2023-06-19T10:49:05;27.80;99.90
5009;DHT22;2523;51.058;6.922;2023-06-19T10:51:38;27.80;99.90
5009;DHT22;2523;51.058;6.922;2023-06-19T10:54:04;28.00;99.90
5009;DHT22;2523;51.058;6.922;2023-06-19T10:56:30;28.10;99.90
5009;DHT22;2523;51.058;6.922;2023-06-19T10:59:04;28.20;93.80
5009;DHT22;2523;51.058;6.922;2023-06-19T11:01:35;28.30;96.30
5009;DHT22;2523;51.058;6.922;2023-06-19T11:04:05;28.40;91.70
5009;DHT22;2523;51.058;6.922;2023-06-19T11:06:32;28.20;92.30
5009;DHT22;2523;51.058;6.922;2023-06-19T11:08:58;28.10;96.70
5009;DHT22;2523;51.058;6.922;2023-06-19T11:11:35;28.10;94.00
5009;DHT22;2523;51.058;6.922;2023-06-19T11:14:00;28.00;88.60
5009;DHT22;2523;51.058;6.922;2023-06-19T11:16:26;28.10;94.40
5009;DHT22;2523;51.058;6.922;2023-06-19T11:18:59;28.10;88.90
5009;DHT22;2523;51.058;6.922;2023-06-19T11:21:32;28.20;94.40
5009;DHT22;2523;51.058;6.922;2023-06-19T11:24:04;28.30;84.00
5009;DHT22;2523;51.058;6.922;2023-06-19T11:26:40;28.10;87.00
5009;DHT22;2523;51.058;6.922;2023-06-19T11:29:26;28.40;91.80
5009;DHT22;2523;51.058;6.922;2023-06-19T11:32:04;28.70;84.00
5009;DHT22;2523;51.058;6.922;2023-06-19T11:34:35;28.90;78.90
5009;DHT22;2523;51.058;6.922;2023-06-19T11:37:15;28.50;64.80
5009;DHT22;2523;51.058;6.922;2023-06-19T11:39:45;28.90;74.50
5009;DHT22;2523;51.058;6.922;2023-06-19T11:42:11;29.10;68.50
5009;DHT22;2523;51.058;6.922;2023-06-19T11:44:55;29.10;68.80
5009;DHT22;2523;51.058;6.922;2023-06-19T11:47:22;29.10;59.20
5009;DHT22;2523;51.058;6.922;2023-06-19T11:49:48;29.40;55.70
5009;DHT22;2523;51.058;6.922;2023-06-19T11:52:15;29.30;48.90
5009;DHT22;2523;51.058;6.922;2023-06-19T11:54:41;29.60;57.20
5009;DHT22;2523;51.058;6.922;2023-06-19T11:57:06;29.90;52.70
5009;DHT22;2523;51.058;6.922;2023-06-19T11:59:32;30.10;44.10
5009;DHT22;2523;51.058;6.922;2023-06-19T12:01:58;30.00;43.00
5009;DHT22;2523;51.058;6.922;2023-06-19T12:04:24;29.80;40.70
5009;DHT22;2523;51.058;6.922;2023-06-19T12:06:51;29.90;41.30
5009;DHT22;2523;51.058;6.922;2023-06-19T12:09:17;29.90;42.80
5009;DHT22;2523;51.058;6.922;2023-06-19T12:11:43;30.10;39.10
5009;DHT22;2523;51.058;6.922;2023-06-19T12:14:08;30.00;41.40
5009;DHT22;2523;51.058;6.922;2023-06-19T12:16:34;29.60;38.40
5009;DHT22;2523;51.058;6.922;2023-06-19T12:18:59;29.70;41.40
5009;DHT22;2523;51.058;6.922;2023-06-19T12:21:25;30.10;42.60
5009;DHT22;2523;51.058;6.922;2023-06-19T12:23:50;30.60;37.30
5009;DHT22;2523;51.058;6.922;2023-06-19T12:26:16;30.30;41.50
5009;DHT22;2523;51.058;6.922;2023-06-19T12:28:42;30.50;39.10
5009;DHT22;2523;51.058;6.922;2023-06-19T12:31:07;30.50;43.70
5009;DHT22;2523;51.058;6.922;2023-06-19T12:33:33;30.70;33.70
5009;DHT22;2523;51.058;6.922;2023-06-19T12:35:59;30.60;34.40
5009;DHT22;2523;51.058;6.922;2023-06-19T12:38:25;30.70;35.60
5009;DHT22;2523;51.058;6.922;2023-06-19T12:40:51;30.80;33.30
5009;DHT22;2523;51.058;6.922;2023-06-19T12:43:17;31.00;33.00
5009;DHT22;2523;51.058;6.922;2023-06-19T12:45:43;31.20;35.70
5009;DHT22;2523;51.058;6.922;2023-06-19T12:48:10;31.30;30.00
5009;DHT22;2523;51.058;6.922;2023-06-19T12:50:36;31.40;28.40
5009;DHT22;2523;51.058;6.922;2023-06-19T12:53:01;30.90;28.90
5009;DHT22;2523;51.058;6.922;2023-06-19T12:55:27;30.90;30.10
5009;DHT22;2523;51.058;6.922;2023-06-19T12:57:53;30.70;27.30
5009;DHT22;2523;51.058;6.922;2023-06-19T13:00:18;30.60;27.90
5009;DHT22;2523;51.058;6.922;2023-06-19T13:02:44;30.80;27.30
5009;DHT22;2523;51.058;6.922;2023-06-19T13:05:11;30.80;29.20
5009;DHT22;2523;51.058;6.922;2023-06-19T13:07:37;30.70;27.40
5009;DHT22;2523;51.058;6.922;2023-06-19T13:10:03;30.60;30.70
5009;DHT22;2523;51.058;6.922;2023-06-19T13:12:29;30.70;28.10
5009;DHT22;2523;51.058;6.922;2023-06-19T13:14:55;30.20;28.20
5009;DHT22;2523;51.058;6.922;2023-06-19T13:17:20;30.30;28.40
5009;DHT22;2523;51.058;6.922;2023-06-19T13:19:46;30.50;27.60
5009;DHT22;2523;51.058;6.922;2023-06-19T13:22:11;30.60;28.40
5009;DHT22;2523;51.058;6.922;2023-06-19T13:24:37;30.60;29.20
5009;DHT22;2523;51.058;6.922;2023-06-19T13:27:03;30.40;27.00
5009;DHT22;2523;51.058;6.922;2023-06-19T13:29:28;30.50;27.20
5009;DHT22;2523;51.058;6.922;2023-06-19T13:31:54;30.70;26.40
5009;DHT22;2523;51.058;6.922;2023-06-19T13:34:20;30.60;27.40
5009;DHT22;2523;51.058;6.922;2023-06-19T13:36:47;30.70;26.10
5009;DHT22;2523;51.058;6.922;2023-06-19T13:39:13;30.90;27.80
5009;DHT22;2523;51.058;6.922;2023-06-19T13:41:38;31.20;26.00
5009;DHT22;2523;51.058;6.922;2023-06-19T13:44:04;31.00;25.60
5009;DHT22;2523;51.058;6.922;2023-06-19T13:46:29;31.10;25.00
5009;DHT22;2523;51.058;6.922;2023-06-19T13:48:57;31.30;24.80
5009;DHT22;2523;51.058;6.922;2023-06-19T13:51:23;31.30;26.10
5009;DHT22;2523;51.058;6.922;2023-06-19T13:53:50;31.20;23.90
5009;DHT22;2523;51.058;6.922;2023-06-19T13:56:16;31.10;25.10
5009;DHT22;2523;51.058;6.922;2023-06-19T13:58:42;31.10;27.00
5009;DHT22;2523;51.058;6.922;2023-06-19T14:01:08;31.30;25.30
5009;DHT22;2523;51.058;6.922;2023-06-19T14:03:36;30.70;23.90
5009;DHT22;2523;51.058;6.922;2023-06-19T14:06:02;30.90;26.60
5009;DHT22;2523;51.058;6.922;2023-06-19T14:08:27;30.90;25.40
5009;DHT22;2523;51.058;6.922;2023-06-19T14:10:55;30.90;24.60
5009;DHT22;2523;51.058;6.922;2023-06-19T14:13:20;31.20;22.80
5009;DHT22;2523;51.058;6.922;2023-06-19T14:15:46;31.40;22.40
5009;DHT22;2523;51.058;6.922;2023-06-19T14:18:11;31.40;22.70
5009;DHT22;2523;51.058;6.922;2023-06-19T14:20:37;31.60;22.60
5009;DHT22;2523;51.058;6.922;2023-06-19T14:23:03;31.60;20.50
5009;DHT22;2523;51.058;6.922;2023-06-19T14:25:29;31.50;20.30
5009;DHT22;2523;51.058;6.922;2023-06-19T14:27:54;31.40;24.10
5009;DHT22;2523;51.058;6.922;2023-06-19T14:30:20;31.30;20.30
5009;DHT22;2523;51.058;6.922;2023-06-19T14:32:47;31.30;20.20
5009;DHT22;2523;51.058;6.922;2023-06-19T14:35:13;31.40;21.50
5009;DHT22;2523;51.058;6.922;2023-06-19T14:37:38;31.20;22.80
5009;DHT22;2523;51.058;6.922;2023-06-19T14:40:04;31.00;23.90
5009;DHT22;2523;51.058;6.922;2023-06-19T14:42:30;31.20;22.10
5009;DHT22;2523;51.058;6.922;2023-06-19T14:44:55;30.90;22.60
5009;DHT22;2523;51.058;6.922;2023-06-19T14:47:21;30.60;20.30
5009;DHT22;2523;51.058;6.922;2023-06-19T14:49:46;30.80;22.60
5009;DHT22;2523;51.058;6.922;2023-06-19T14:52:13;30.90;22.80
5009;DHT22;2523;51.058;6.922;2023-06-19T14:54:38;30.90;22.10
5009;DHT22;2523;51.058;6.922;2023-06-19T14:57:04;31.10;22.40
5009;DHT22;2523;51.058;6.922;2023-06-19T14:59:30;31.20;22.10
5009;DHT22;2523;51.058;6.922;2023-06-19T15:01:56;31.20;22.10
5009;DHT22;2523;51.058;6.922;2023-06-19T15:04:21;31.30;22.30
5009;DHT22;2523;51.058;6.922;2023-06-19T15:06:48;31.20;22.30
5009;DHT22;2523;51.058;6.922;2023-06-19T15:09:13;31.30;22.00
5009;DHT22;2523;51.058;6.922;2023-06-19T15:11:39;31.10;22.40
5009;DHT22;2523;51.058;6.922;2023-06-19T15:14:05;31.10;19.90
5009;DHT22;2523;51.058;6.922;2023-06-19T15:16:30;30.90;20.70
5009;DHT22;2523;51.058;6.922;2023-06-19T15:18:56;30.90;21.80
5009;DHT22;2523;51.058;6.922;2023-06-19T15:21:21;30.90;21.00
5009;DHT22;2523;51.058;6.922;2023-06-19T15:23:47;31.10;20.40
5009;DHT22;2523;51.058;6.922;2023-06-19T15:26:14;31.10;21.30
5009;DHT22;2523;51.058;6.922;2023-06-19T15:28:40;30.80;20.90
5009;DHT22;2523;51.058;6.922;2023-06-19T15:31:06;30.70;21.20
5009;DHT22;2523;51.058;6.922;2023-06-19T15:33:32;30.70;19.20
5009;DHT22;2523;51.058;6.922;2023-06-19T15:35:57;30.60;20.00
5009;DHT22;2523;51.058;6.922;2023-06-19T15:38:23;30.70;19.60
5009;DHT22;2523;51.058;6.922;2023-06-19T15:40:48;30.50;20.80
5009;DHT22;2523;51.058;6.922;2023-06-19T15:43:14;30.40;21.30
5009;DHT22;2523;51.058;6.922;2023-06-19T15:45:39;30.20;20.30
5009;DHT22;2523;51.058;6.922;2023-06-19T15:48:06;30.20;20.70
5009;DHT22;2523;51.058;6.922;2023-06-19T15:50:31;30.10;22.80
5009;DHT22;2523;51.058;6.922;2023-06-19T15:52:58;30.00;22.70
5009;DHT22;2523;51.058;6.922;2023-06-19T15:55:24;30.00;21.70
5009;DHT22;2523;51.058;6.922;2023-06-19T15:57:51;29.90;21.40
5009;DHT22;2523;51.058;6.922;2023-06-19T16:00:17;29.80;20.90
5009;DHT22;2523;51.058;6.922;2023-06-19T16:02:43;29.70;21.00